createdAt,value
2022-09-03T00:00:12.165Z,1.42
2022-09-03T00:02:47.395Z,1.30
2022-09-03T00:05:26.899Z,1.35
2022-09-03T00:08:03.779Z,1.35
2022-09-03T00:10:43.491Z,1.40
2022-09-03T00:13:16.970Z,1.60
2022-09-03T00:15:43.421Z,1.55
2022-09-03T00:18:15.792Z,1.45
2022-09-03T00:20:45.387Z,1.20
2022-09-03T00:23:16.403Z,1.10
2022-09-03T00:26:02.948Z,1.20
2022-09-03T00:28:35.767Z,1.25
2022-09-03T00:31:18.331Z,1.20
2022-09-03T00:33:46.923Z,1.30
2022-09-03T00:36:23.628Z,1.60
2022-09-03T00:38:50.564Z,1.60
2022-09-03T00:41:31.287Z,1.13
2022-09-03T00:44:15.879Z,1.20
2022-09-03T00:46:51.490Z,1.15
2022-09-03T00:49:43.319Z,1.42
2022-09-03T00:52:33.616Z,1.25
2022-09-03T00:55:26.803Z,1.23
2022-09-03T00:58:20.900Z,1.20
2022-09-03T01:00:47.361Z,1.20
2022-09-03T01:03:25.488Z,1.10
2022-09-03T01:06:11.908Z,1.67
2022-09-03T01:08:53.226Z,1.27
2022-09-03T01:11:35.105Z,1.10
2022-09-03T01:14:12.805Z,1.20
2022-09-03T01:20:13.310Z,1.10
2022-09-03T01:22:57.790Z,1.10
2022-09-03T01:25:43.778Z,1.10
2022-09-03T01:28:16.218Z,1.00
2022-09-03T01:30:48.247Z,1.20
2022-09-03T01:33:26.011Z,1.23
2022-09-03T01:36:16.754Z,1.00
2022-09-03T01:38:47.614Z,1.30
2022-09-03T01:42:02.857Z,1.17
2022-09-03T01:44:40.452Z,1.10
2022-09-03T01:47:11.838Z,1.10
2022-09-03T01:50:01.362Z,1.08
2022-09-03T01:52:48.525Z,1.20
2022-09-03T01:55:19.878Z,1.10
2022-09-03T01:57:56.191Z,1.13
2022-09-03T02:00:23.976Z,1.20
2022-09-03T02:02:51.928Z,1.40
2022-09-03T02:05:26.654Z,1.00
2022-09-03T02:08:01.341Z,1.20
2022-09-03T02:10:51.731Z,0.95
2022-09-03T02:13:30.354Z,1.20
2022-09-03T02:16:00.789Z,1.08
2022-09-03T02:18:30.831Z,1.10
2022-09-03T02:20:57.529Z,1.30
2022-09-03T02:23:25.523Z,1.02
2022-09-03T02:26:00.601Z,1.02
2022-09-03T02:28:28.361Z,1.10
2022-09-03T02:30:55.133Z,1.23
2022-09-03T02:33:21.527Z,0.90
2022-09-03T02:35:48.724Z,1.17
2022-09-03T02:38:26.054Z,1.05
2022-09-03T02:40:54.296Z,1.13
2022-09-03T02:43:26.416Z,1.13
2022-09-03T02:45:56.032Z,1.20
2022-09-03T02:48:24.187Z,1.17
2022-09-03T02:50:50.739Z,1.10
2022-09-03T02:53:17.236Z,1.17
2022-09-03T02:55:43.699Z,1.05
2022-09-03T02:58:10.075Z,1.02
2022-09-03T03:00:37.181Z,0.90
2022-09-03T03:03:04.532Z,1.10
2022-09-03T03:05:50.677Z,1.17
2022-09-03T03:08:21.305Z,1.10
2022-09-03T03:10:49.393Z,1.25
2022-09-03T03:13:16.202Z,1.13
2022-09-03T03:15:43.230Z,1.10
2022-09-03T03:18:11.961Z,1.30
2022-09-03T03:20:38.850Z,1.08
2022-09-03T03:23:06.306Z,0.90
2022-09-03T03:25:34.055Z,1.40
2022-09-03T03:28:00.963Z,1.10
2022-09-03T03:30:27.779Z,1.02
2022-09-03T03:32:54.718Z,1.20
2022-09-03T03:35:21.079Z,1.10
2022-09-03T03:37:47.426Z,1.20
2022-09-03T03:40:14.931Z,1.10
2022-09-03T03:42:42.143Z,1.00
2022-09-03T03:45:10.050Z,1.25
2022-09-03T03:47:37.152Z,1.10
2022-09-03T03:50:04.486Z,1.02
2022-09-03T03:52:30.821Z,1.20
2022-09-03T03:54:57.291Z,1.10
2022-09-03T03:57:23.795Z,1.20
2022-09-03T03:59:50.429Z,1.17
2022-09-03T04:02:17.680Z,1.23
2022-09-03T04:04:44.271Z,1.27
2022-09-03T04:07:10.636Z,1.00
2022-09-03T04:09:37.686Z,1.02
2022-09-03T04:12:08.581Z,1.10
2022-09-03T04:14:35.318Z,1.17
2022-09-03T04:17:02.924Z,1.20
2022-09-03T04:19:32.227Z,1.35
2022-09-03T04:21:58.615Z,1.20
2022-09-03T04:24:25.118Z,1.13
2022-09-03T04:26:51.671Z,1.00
2022-09-03T04:29:18.283Z,1.10
2022-09-03T04:32:04.707Z,1.23
2022-09-03T04:34:31.094Z,1.10
2022-09-03T04:36:58.958Z,1.40
2022-09-03T04:39:25.789Z,1.30
2022-09-03T04:41:52.220Z,1.13
2022-09-03T04:44:18.584Z,1.30
2022-09-03T04:46:47.667Z,1.23
2022-09-03T04:49:14.126Z,1.40
2022-09-03T04:51:40.519Z,1.10
2022-09-03T04:54:07.430Z,1.00
2022-09-03T04:56:35.051Z,1.23
2022-09-03T04:59:04.193Z,1.00
2022-09-03T05:01:32.631Z,1.10
2022-09-03T05:04:00.013Z,1.17
2022-09-03T05:06:27.458Z,1.10
2022-09-03T05:08:54.655Z,1.20
2022-09-03T05:11:21.469Z,1.15
2022-09-03T05:13:49.064Z,1.15
2022-09-03T05:16:16.101Z,1.17
2022-09-03T05:18:42.791Z,1.20
2022-09-03T05:21:11.839Z,1.20
2022-09-03T05:23:40.099Z,1.27
2022-09-03T05:26:10.829Z,1.13
2022-09-03T05:28:39.619Z,1.20
2022-09-03T05:31:11.082Z,0.93
2022-09-03T05:33:39.914Z,1.27
2022-09-03T05:36:08.222Z,1.23
2022-09-03T05:38:35.325Z,1.20
2022-09-03T05:41:07.053Z,1.20
2022-09-03T05:43:34.058Z,1.30
2022-09-03T05:46:09.259Z,1.30
2022-09-03T05:48:37.386Z,1.30
2022-09-03T05:51:08.976Z,1.17
2022-09-03T05:53:37.402Z,1.30
2022-09-03T05:56:10.786Z,1.48
2022-09-03T05:58:44.094Z,1.30
2022-09-03T06:01:18.718Z,1.35
2022-09-03T06:03:46.923Z,1.30
2022-09-03T06:06:13.916Z,1.40
2022-09-03T06:08:41.460Z,1.40
2022-09-03T06:11:08.255Z,1.17
2022-09-03T06:13:35.369Z,1.40
2022-09-03T06:16:04.397Z,1.40
2022-09-03T06:18:31.304Z,1.50
2022-09-03T06:21:03.658Z,1.27
2022-09-03T06:23:30.819Z,1.40
2022-09-03T06:26:06.322Z,1.40
2022-09-03T06:28:38.443Z,1.35
2022-09-03T06:31:06.997Z,1.60
2022-09-03T06:33:35.191Z,1.52
2022-09-03T06:36:05.673Z,1.95
2022-09-03T06:38:37.669Z,1.45
2022-09-03T06:41:10.248Z,1.60
2022-09-03T06:43:38.589Z,1.70
2022-09-03T06:46:06.916Z,1.60
2022-09-03T06:48:34.584Z,1.60
2022-09-03T06:51:03.648Z,1.70
2022-09-03T06:53:32.590Z,1.67
2022-09-03T06:56:01.727Z,1.63
2022-09-03T06:58:32.719Z,1.63
2022-09-03T07:01:22.219Z,1.73
2022-09-03T07:03:55.871Z,1.60
2022-09-03T07:06:23.268Z,1.50
2022-09-03T07:08:49.637Z,1.55
2022-09-03T07:11:19.415Z,1.58
2022-09-03T07:13:48.031Z,1.55
2022-09-03T07:16:16.585Z,1.70
2022-09-03T07:18:43.773Z,1.42
2022-09-03T07:21:12.405Z,1.80
2022-09-03T07:23:39.646Z,1.80
2022-09-03T07:26:17.007Z,1.42
2022-09-03T07:28:45.979Z,1.60
2022-09-03T07:31:25.835Z,1.60
2022-09-03T07:33:59.842Z,1.80
2022-09-03T07:36:27.868Z,1.58
2022-09-03T07:38:58.398Z,1.40
2022-09-03T07:41:28.862Z,1.88
2022-09-03T07:43:55.784Z,1.60
2022-09-03T07:46:24.915Z,1.88
2022-09-03T07:48:56.596Z,1.65
2022-09-03T07:51:26.476Z,1.80
2022-09-03T07:53:54.879Z,1.80
2022-09-03T07:56:21.809Z,1.73
2022-09-03T07:58:48.341Z,1.65
2022-09-03T08:01:20.320Z,2.03
2022-09-03T08:03:51.486Z,2.30
2022-09-03T08:06:19.739Z,2.00
2022-09-03T08:08:46.212Z,1.98
2022-09-03T08:11:15.114Z,2.22
2022-09-03T08:13:48.414Z,2.30
2022-09-03T08:16:18.496Z,2.55
2022-09-03T08:18:45.910Z,2.15
2022-09-03T08:21:15.661Z,2.47
2022-09-03T08:23:43.921Z,2.50
2022-09-03T08:26:10.583Z,2.10
2022-09-03T08:28:37.693Z,2.17
2022-09-03T08:31:09.995Z,1.80
2022-09-03T08:33:39.176Z,2.28
2022-09-03T08:36:17.675Z,2.45
2022-09-03T08:38:46.117Z,2.40
2022-09-03T08:41:16.246Z,2.50
2022-09-03T08:43:58.121Z,2.38
2022-09-03T08:47:01.678Z,2.28
2022-09-03T08:49:35.278Z,2.22
2022-09-03T08:52:07.851Z,2.13
2022-09-03T08:54:35.733Z,2.30
2022-09-03T08:57:03.278Z,2.10
2022-09-03T08:59:33.128Z,2.10
2022-09-03T09:02:13.309Z,2.20
2022-09-03T09:05:06.255Z,1.98
2022-09-03T09:08:03.528Z,2.17
2022-09-03T09:10:55.679Z,2.00
2022-09-03T09:13:32.395Z,1.90
2022-09-03T09:16:17.536Z,1.92
2022-09-03T09:19:01.612Z,1.63
2022-09-03T09:21:31.015Z,1.73
2022-09-03T09:25:23.050Z,2.53
2022-09-03T09:28:20.655Z,1.95
2022-09-03T09:30:49.238Z,2.00
2022-09-03T09:33:16.363Z,2.13
2022-09-03T09:35:45.880Z,2.10
2022-09-03T09:38:13.054Z,2.10
2022-09-03T09:40:44.998Z,2.10
2022-09-03T09:43:21.488Z,1.88
2022-09-03T09:45:53.222Z,1.80
2022-09-03T09:48:26.278Z,2.10
2022-09-03T09:51:12.990Z,2.13
2022-09-03T09:53:40.448Z,2.15
2022-09-03T09:56:07.360Z,2.35
2022-09-03T09:58:34.801Z,2.08
2022-09-03T10:01:15.042Z,1.80
2022-09-03T10:03:49.703Z,1.90
2022-09-03T10:06:35.496Z,2.13
2022-09-03T10:09:10.021Z,1.90
2022-09-03T10:11:40.174Z,2.17
2022-09-03T10:14:12.929Z,2.20
2022-09-03T10:16:48.888Z,2.40
2022-09-03T10:19:21.083Z,1.70
2022-09-03T10:21:54.925Z,2.38
2022-09-03T10:24:41.452Z,2.50
2022-09-03T10:27:12.490Z,2.88
2022-09-03T10:29:40.677Z,3.30
2022-09-03T10:32:37.851Z,3.00
2022-09-03T10:35:12.618Z,3.00
2022-09-03T10:37:47.692Z,3.00
2022-09-03T10:40:31.796Z,2.30
2022-09-03T10:43:32.384Z,2.78
2022-09-03T10:46:13.958Z,2.85
2022-09-03T10:48:58.697Z,2.80
2022-09-03T10:51:40.962Z,3.05
2022-09-03T10:54:25.932Z,2.67
2022-09-03T10:56:52.225Z,2.60
2022-09-03T10:59:47.970Z,2.80
2022-09-03T11:02:21.125Z,2.67
2022-09-03T11:05:16.131Z,3.10
2022-09-03T11:08:21.075Z,3.10
2022-09-03T11:10:56.887Z,3.30
2022-09-03T11:13:47.462Z,2.45
2022-09-03T11:16:19.897Z,2.80
2022-09-03T11:18:52.385Z,3.10
2022-09-03T11:21:23.990Z,3.00
2022-09-03T11:24:00.427Z,2.75
2022-09-03T11:26:27.719Z,3.30
2022-09-03T11:28:58.233Z,2.90
2022-09-03T11:31:47.599Z,2.88
2022-09-03T11:34:32.136Z,3.13
2022-09-03T11:37:19.122Z,2.80
2022-09-03T11:39:53.376Z,3.20
2022-09-03T11:42:31.633Z,3.08
2022-09-03T11:45:15.626Z,2.50
2022-09-03T11:47:44.151Z,2.20
2022-09-03T11:50:24.472Z,2.53
2022-09-03T11:52:53.198Z,2.80
2022-09-03T11:55:32.636Z,2.60
2022-09-03T11:58:24.173Z,2.67
2022-09-03T12:00:54.970Z,2.90
2022-09-03T12:03:44.474Z,2.38
2022-09-03T12:06:28.050Z,2.50
2022-09-03T12:09:14.352Z,2.75
2022-09-03T12:11:46.709Z,2.10
2022-09-03T12:14:48.108Z,2.30
2022-09-03T12:17:40.546Z,2.60
2022-09-03T12:20:14.635Z,2.80
2022-09-03T12:22:41.548Z,2.30
2022-09-03T12:25:15.493Z,2.60
2022-09-03T12:27:44.696Z,2.30
2022-09-03T12:30:19.685Z,2.40
2022-09-03T12:32:47.331Z,2.25
2022-09-03T12:35:58.385Z,2.45
2022-09-03T12:38:08.123Z,2.47
2022-09-03T12:40:35.577Z,2.30
2022-09-03T12:43:49.974Z,2.50
2022-09-03T12:46:15.445Z,2.40
2022-09-03T12:51:56.095Z,2.35
2022-09-03T12:54:23.345Z,2.08
2022-09-03T12:56:55.534Z,2.00
2022-09-03T12:59:22.982Z,2.00
2022-09-03T13:01:52.779Z,2.00
2022-09-03T13:04:23.130Z,2.00
2022-09-03T13:07:03.633Z,1.95
2022-09-03T13:09:31.047Z,1.80
2022-09-03T13:11:59.072Z,2.00
2022-09-03T13:14:26.941Z,2.00
2022-09-03T13:17:06.132Z,2.15
2022-09-03T13:19:39.458Z,2.20
2022-09-03T13:22:28.339Z,1.80
2022-09-03T13:25:25.067Z,1.70
2022-09-03T13:28:16.078Z,1.95
2022-09-03T13:31:03.915Z,1.73
2022-09-03T13:33:50.755Z,1.77
2022-09-03T13:36:24.273Z,1.90
2022-09-03T13:38:50.707Z,2.08
2022-09-03T13:41:24.534Z,1.77
2022-09-03T13:44:22.683Z,1.80
2022-09-03T13:46:57.035Z,2.17
2022-09-03T13:50:01.153Z,2.05
2022-09-03T13:52:47.199Z,2.00
2022-09-03T13:55:19.679Z,2.10
2022-09-03T13:58:01.848Z,2.15
2022-09-03T14:00:32.990Z,2.13
2022-09-03T14:03:13.643Z,1.90
2022-09-03T14:06:07.710Z,2.03
2022-09-03T14:08:38.822Z,1.98
2022-09-03T14:11:31.014Z,1.90
2022-09-03T14:14:13.939Z,2.17
2022-09-03T14:16:55.142Z,1.88
2022-09-03T14:19:33.058Z,2.30
2022-09-03T14:22:43.555Z,1.83
2022-09-03T14:25:16.407Z,1.70
2022-09-03T14:27:42.862Z,2.10
2022-09-03T14:30:41.149Z,1.85
2022-09-03T14:33:19.812Z,1.95
2022-09-03T14:35:54.463Z,2.00
2022-09-03T14:38:58.892Z,1.88
2022-09-03T14:41:47.023Z,2.10
2022-09-03T14:44:32.115Z,1.83
2022-09-03T14:47:25.019Z,2.00
2022-09-03T14:50:14.458Z,2.17
2022-09-03T14:52:53.578Z,2.35
2022-09-03T14:55:25.946Z,2.00
2022-09-03T14:58:26.319Z,2.50
2022-09-03T15:01:01.753Z,2.40
2022-09-03T15:03:34.184Z,2.22
2022-09-03T15:06:33.098Z,2.70
2022-09-03T15:09:15.039Z,2.72
2022-09-03T15:12:01.383Z,2.60
2022-09-03T15:14:40.035Z,2.45
2022-09-03T15:17:42.109Z,2.67
2022-09-03T15:20:17.847Z,2.80
2022-09-03T15:23:22.029Z,2.90
2022-09-03T15:26:29.264Z,2.58
2022-09-03T15:29:06.111Z,2.97
2022-09-03T15:31:44.615Z,2.67
2022-09-03T15:34:36.312Z,2.80
2022-09-03T15:37:10.415Z,2.90
2022-09-03T15:39:39.195Z,2.90
2022-09-03T15:42:15.142Z,2.72
2022-09-03T15:44:47.343Z,2.80
2022-09-03T15:47:30.205Z,2.38
2022-09-03T15:50:30.216Z,2.78
2022-09-03T15:53:04.358Z,2.88
2022-09-03T15:55:37.795Z,2.83
2022-09-03T15:58:18.717Z,2.97
2022-09-03T16:01:00.911Z,2.80
2022-09-03T16:03:44.114Z,2.55
2022-09-03T16:06:37.973Z,2.60
2022-09-03T16:09:45.014Z,2.97
2022-09-03T16:12:26.521Z,2.65
2022-09-03T16:15:23.247Z,2.60
2022-09-03T16:17:55.812Z,2.90
2022-09-03T16:20:45.139Z,2.70
2022-09-03T16:23:33.065Z,2.47
2022-09-03T16:26:18.739Z,2.30
2022-09-03T16:28:53.409Z,1.70
2022-09-03T16:31:47.652Z,1.63
2022-09-03T16:34:26.146Z,1.90
2022-09-03T16:37:05.807Z,1.60
2022-09-03T16:39:46.984Z,0.98
2022-09-03T16:42:30.206Z,0.70
2022-09-03T16:45:05.486Z,1.10
2022-09-03T16:47:50.402Z,1.00
2022-09-03T16:50:32.309Z,0.90
2022-09-03T16:53:09.306Z,1.35
2022-09-03T16:56:13.983Z,0.90
2022-09-03T16:58:57.630Z,1.00
2022-09-03T17:01:36.303Z,0.80
2022-09-03T17:04:30.040Z,0.80
2022-09-03T17:06:56.983Z,0.70
2022-09-03T17:09:27.339Z,0.73
2022-09-03T17:12:02.693Z,0.73
2022-09-03T17:15:01.486Z,0.80
2022-09-03T17:17:40.611Z,0.80
2022-09-03T17:20:15.382Z,0.68
2022-09-03T17:22:49.771Z,0.90
2022-09-03T17:25:35.406Z,0.70
2022-09-03T17:28:22.711Z,0.90
2022-09-03T17:31:18.406Z,0.90
2022-09-03T17:34:33.047Z,1.30
2022-09-03T17:37:08.954Z,0.80
2022-09-03T17:39:52.911Z,0.80
2022-09-03T17:43:00.559Z,0.95
2022-09-03T17:45:38.087Z,0.80
2022-09-03T17:48:22.661Z,0.75
2022-09-03T17:50:57.478Z,0.80
2022-09-03T17:53:34.504Z,1.10
2022-09-03T17:56:04.445Z,1.30
2022-09-03T17:58:34.376Z,1.02
2022-09-03T18:01:09.815Z,0.80
2022-09-03T18:03:55.965Z,0.80
2022-09-03T18:06:54.986Z,1.10
2022-09-03T18:09:40.540Z,0.75
2022-09-03T18:12:14.619Z,1.20
2022-09-03T18:15:02.106Z,1.20
2022-09-03T18:17:35.481Z,1.20
2022-09-03T18:20:32.649Z,1.70
2022-09-03T18:23:37.960Z,1.30
2022-09-03T18:26:26.460Z,1.30
2022-09-03T18:29:53.727Z,1.20
2022-09-03T18:32:39.393Z,1.42
2022-09-03T18:35:26.795Z,2.75
2022-09-03T18:38:11.545Z,2.03
2022-09-03T18:41:05.329Z,1.70
2022-09-03T18:44:21.393Z,1.45
2022-09-03T18:48:03.002Z,1.45
2022-09-03T18:50:24.735Z,1.50
2022-09-03T18:53:20.215Z,1.67
2022-09-03T18:56:43.014Z,1.60
2022-09-03T18:59:41.485Z,1.77
2022-09-03T19:02:56.117Z,1.67
2022-09-03T19:05:50.425Z,1.70
2022-09-03T19:08:49.587Z,1.70
2022-09-03T19:11:56.054Z,1.60
2022-09-03T19:15:07.459Z,1.70
2022-09-03T19:18:43.718Z,1.30
2022-09-03T19:21:28.490Z,1.65
2022-09-03T19:24:20.155Z,1.83
2022-09-03T19:27:24.686Z,2.22
2022-09-03T19:30:26.368Z,1.77
2022-09-03T19:33:20.042Z,1.88
2022-09-03T19:36:34.684Z,2.20
2022-09-03T19:39:47.812Z,1.90
2022-09-03T19:43:04.971Z,1.80
2022-09-03T19:46:28.374Z,1.98
2022-09-03T19:49:41.034Z,1.38
2022-09-03T19:52:52.095Z,1.48
2022-09-03T19:55:45.634Z,1.80
2022-09-03T19:58:43.239Z,1.75
2022-09-03T20:01:29.655Z,1.50
2022-09-03T20:04:17.671Z,1.60
2022-09-03T20:07:02.970Z,1.30
2022-09-03T20:09:51.922Z,1.02
2022-09-03T20:12:21.133Z,1.15
2022-09-03T20:14:47.595Z,1.10
2022-09-03T20:17:19.358Z,1.27
2022-09-03T20:20:33.866Z,1.30
2022-09-03T20:23:04.514Z,1.45
2022-09-03T20:25:43.050Z,1.55
2022-09-03T20:28:48.474Z,1.45
2022-09-03T20:31:45.310Z,1.58
2022-09-03T20:34:56.291Z,1.52
2022-09-03T20:37:41.503Z,2.40
2022-09-03T20:40:21.742Z,1.60
2022-09-03T20:43:10.408Z,1.90
2022-09-03T20:45:45.271Z,2.05
2022-09-03T20:48:25.146Z,1.90
2022-09-03T20:51:01.051Z,2.50
2022-09-03T20:53:52.364Z,2.58
2022-09-03T20:56:33.631Z,3.55
2022-09-03T20:59:25.168Z,2.90
2022-09-03T21:01:57.405Z,3.67
2022-09-03T21:04:33.274Z,3.42
2022-09-03T21:07:16.226Z,4.50
2022-09-03T21:09:55.963Z,3.70
2022-09-03T21:12:52.973Z,4.35
2022-09-03T21:15:59.080Z,4.05
2022-09-03T21:18:40.018Z,4.57
2022-09-03T21:21:13.692Z,3.28
2022-09-03T21:23:43.072Z,3.58
2022-09-03T21:26:25.812Z,3.58
2022-09-03T21:29:21.471Z,3.80
2022-09-03T21:31:54.313Z,3.67
2022-09-03T21:34:29.234Z,3.58
2022-09-03T21:36:56.069Z,3.38
2022-09-03T21:39:32.614Z,3.33
2022-09-03T21:42:31.132Z,3.50
2022-09-03T21:45:03.120Z,3.50
2022-09-03T21:47:30.825Z,3.53
2022-09-03T21:50:21.528Z,3.38
2022-09-03T21:53:05.621Z,3.33
2022-09-03T21:55:52.278Z,3.55
2022-09-03T21:58:47.099Z,3.40
2022-09-03T22:01:20.054Z,3.20
2022-09-03T22:03:46.835Z,3.20
2022-09-03T22:06:39.056Z,3.13
2022-09-03T22:09:13.784Z,3.50
2022-09-03T22:11:41.612Z,2.95
2022-09-03T22:14:15.201Z,2.88
2022-09-03T22:16:55.258Z,2.60
2022-09-03T22:19:21.784Z,2.75
2022-09-03T22:21:59.330Z,2.67
2022-09-03T22:24:50.926Z,2.67
2022-09-03T22:27:30.056Z,2.85
2022-09-03T22:30:05.262Z,2.33
2022-09-03T22:32:33.595Z,3.50
2022-09-03T22:35:18.487Z,3.15
2022-09-03T22:37:55.496Z,2.30
2022-09-03T22:40:36.971Z,2.47
2022-09-03T22:43:16.547Z,2.30
2022-09-03T22:45:48.858Z,2.17
2022-09-03T22:48:31.123Z,2.30
2022-09-03T22:50:59.027Z,2.20
2022-09-03T22:53:54.148Z,2.05
2022-09-03T22:56:24.534Z,2.20
2022-09-03T22:58:56.369Z,2.10
2022-09-03T23:01:36.990Z,2.10
2022-09-03T23:04:11.690Z,2.00
2022-09-03T23:07:12.122Z,2.25
2022-09-03T23:09:41.135Z,2.10
2022-09-03T23:12:10.969Z,2.00
2022-09-03T23:14:51.205Z,1.90
2022-09-03T23:20:00.527Z,1.67
2022-09-03T23:22:38.909Z,2.22
2022-09-03T23:25:19.400Z,1.95
2022-09-03T23:28:01.032Z,2.10
2022-09-03T23:30:27.568Z,2.00
2022-09-03T23:32:57.495Z,1.93
2022-09-03T23:35:30.356Z,2.30
2022-09-03T23:38:15.585Z,1.77
2022-09-03T23:40:49.138Z,2.10
2022-09-03T23:43:34.097Z,2.03
2022-09-03T23:46:14.316Z,2.13
2022-09-03T23:48:43.841Z,2.10
2022-09-03T23:51:33.862Z,1.90
2022-09-03T23:54:18.654Z,2.20
2022-09-03T23:57:02.199Z,2.00
2022-09-03T23:59:51.715Z,1.90
